createdAt,value
2018-03-03T00:00:37.531Z,29.6
2018-03-03T00:01:27.571Z,29.6
2018-03-03T00:02:16.670Z,29.6
2018-03-03T00:03:07.330Z,29.5
2018-03-03T00:03:56.412Z,29.5
2018-03-03T00:04:48.111Z,29.5
2018-03-03T00:05:38.507Z,29.5
2018-03-03T00:06:27.312Z,29.5
2018-03-03T00:07:17.403Z,29.4
2018-03-03T00:08:07.902Z,29.4
2018-03-03T00:08:57.545Z,29.4
2018-03-03T00:09:47.380Z,29.4
2018-03-03T00:10:37.392Z,29.4
2018-03-03T00:11:27.707Z,29.4
2018-03-03T00:12:17.747Z,29.4
2018-03-03T00:13:07.339Z,29.4
2018-03-03T00:13:57.962Z,29.4
2018-03-03T00:14:48.015Z,29.4
2018-03-03T00:15:38.849Z,29.4
2018-03-03T00:16:27.968Z,29.4
2018-03-03T00:17:18.175Z,29.4
2018-03-03T00:18:09.009Z,29.4
2018-03-03T00:18:57.838Z,29.4
2018-03-03T00:19:47.882Z,29.4
2018-03-03T00:20:38.589Z,29.4
2018-03-03T00:21:27.774Z,29.3
2018-03-03T00:22:17.968Z,29.3
2018-03-03T00:23:07.189Z,29.3
2018-03-03T00:23:59.763Z,29.3
2018-03-03T00:24:48.049Z,29.3
2018-03-03T00:25:39.687Z,29.3
2018-03-03T00:26:28.094Z,29.3
2018-03-03T00:27:19.221Z,29.3
2018-03-03T00:28:09.301Z,29.3
2018-03-03T00:28:58.433Z,29.3
2018-03-03T00:29:48.433Z,29.3
2018-03-03T00:30:38.631Z,29.3
2018-03-03T00:31:28.484Z,29.2
2018-03-03T00:32:18.392Z,29.2
2018-03-03T00:33:08.161Z,29.2
2018-03-03T00:33:59.526Z,29.2
2018-03-03T00:34:49.182Z,29.2
2018-03-03T00:35:38.958Z,29.2
2018-03-03T00:36:29.488Z,29.2
2018-03-03T00:37:20.108Z,29.2
2018-03-03T00:38:08.903Z,29.2
2018-03-03T00:39:00.241Z,29.2
2018-03-03T00:39:48.851Z,29.2
2018-03-03T00:40:38.907Z,29.1
2018-03-03T00:41:29.849Z,29.1
2018-03-03T00:42:19.703Z,29.1
2018-03-03T00:43:08.555Z,29.1
2018-03-03T00:43:59.827Z,29.1
2018-03-03T00:44:50.555Z,29.1
2018-03-03T00:45:40.636Z,29.1
2018-03-03T00:46:30.037Z,29
2018-03-03T00:47:20.770Z,29
2018-03-03T00:48:11.922Z,29
2018-03-03T00:49:00.288Z,29
2018-03-03T00:49:50.769Z,29
2018-03-03T00:50:40.893Z,29
2018-03-03T00:51:30.143Z,29
2018-03-03T00:52:20.073Z,29
2018-03-03T00:53:10.417Z,28.9
2018-03-03T00:54:00.530Z,28.9
2018-03-03T00:54:50.210Z,28.9
2018-03-03T00:55:40.681Z,28.9
2018-03-03T00:56:31.107Z,28.9
2018-03-03T00:57:20.416Z,28.9
2018-03-03T00:58:11.589Z,28.9
2018-03-03T00:59:01.140Z,28.9
2018-03-03T00:59:51.106Z,28.9
2018-03-03T01:00:41.186Z,28.9
2018-03-03T01:01:31.436Z,28.9
2018-03-03T01:02:21.432Z,28.9
2018-03-03T01:03:11.726Z,28.8
2018-03-03T01:04:01.629Z,28.8
2018-03-03T01:04:51.287Z,28.9
2018-03-03T01:05:42.625Z,28.8
2018-03-03T01:06:32.043Z,28.8
2018-03-03T01:07:22.289Z,28.8
2018-03-03T01:08:11.893Z,28.8
2018-03-03T01:09:01.658Z,28.8
2018-03-03T01:09:52.876Z,28.8
2018-03-03T01:10:42.338Z,28.8
2018-03-03T01:11:32.909Z,28.7
2018-03-03T01:12:22.611Z,28.7
2018-03-03T01:13:11.848Z,28.7
2018-03-03T01:14:02.298Z,28.7
2018-03-03T01:14:52.635Z,28.7
2018-03-03T01:15:42.198Z,28.7
2018-03-03T01:16:32.471Z,28.7
2018-03-03T01:17:22.520Z,28.7
2018-03-03T01:18:11.810Z,28.6
2018-03-03T01:19:02.575Z,28.6
2018-03-03T01:19:52.791Z,28.6
2018-03-03T01:20:43.485Z,28.6
2018-03-03T01:21:33.014Z,28.6
2018-03-03T01:22:22.143Z,28.6
2018-03-03T01:23:11.835Z,28.6
2018-03-03T01:24:02.111Z,28.6
2018-03-03T01:24:51.462Z,28.6
2018-03-03T01:25:42.579Z,28.6
2018-03-03T01:26:32.895Z,28.6
2018-03-03T01:27:23.096Z,28.6
2018-03-03T01:28:12.697Z,28.5
2018-03-03T01:29:03.492Z,28.5
2018-03-03T01:29:52.970Z,28.5
2018-03-03T01:30:43.672Z,28.5
2018-03-03T01:31:33.635Z,28.5
2018-03-03T01:32:23.035Z,28.5
2018-03-03T01:33:13.017Z,28.4
2018-03-03T01:34:03.553Z,28.4
2018-03-03T01:34:54.191Z,28.4
2018-03-03T01:35:42.959Z,28.4
2018-03-03T01:36:34.403Z,28.4
2018-03-03T01:37:23.147Z,28.4
2018-03-03T01:38:12.733Z,28.4
2018-03-03T01:39:04.197Z,28.4
2018-03-03T01:39:54.629Z,28.4
2018-03-03T01:40:43.514Z,28.4
2018-03-03T01:41:34.364Z,28.4
2018-03-03T01:42:24.496Z,28.4
2018-03-03T01:43:13.464Z,28.4
2018-03-03T01:44:03.470Z,28.3
2018-03-03T01:44:53.671Z,28.3
2018-03-03T01:45:44.519Z,28.3
2018-03-03T01:46:34.710Z,28.3
2018-03-03T01:47:24.809Z,28.3
2018-03-03T01:48:14.930Z,28.3
2018-03-03T01:49:04.474Z,28.3
2018-03-03T01:49:54.883Z,28.3
2018-03-03T01:50:44.946Z,28.3
2018-03-03T01:51:34.441Z,28.2
2018-03-03T01:52:24.884Z,28.3
2018-03-03T01:53:14.653Z,28.3
2018-03-03T01:54:04.560Z,28.2
2018-03-03T01:54:55.480Z,28.2
2018-03-03T01:55:45.267Z,28.1
2018-03-03T01:56:34.937Z,28.1
2018-03-03T01:57:24.725Z,28.2
2018-03-03T01:58:15.142Z,28.2
2018-03-03T01:59:05.593Z,28.1
2018-03-03T01:59:55.088Z,28.1
2018-03-03T02:00:45.702Z,28.1
2018-03-03T02:01:36.243Z,28.1
2018-03-03T02:02:25.061Z,28.1
2018-03-03T02:03:14.523Z,28.1
2018-03-03T02:04:05.770Z,28.1
2018-03-03T02:04:56.028Z,28.1
2018-03-03T02:05:46.095Z,28.1
2018-03-03T02:06:35.789Z,28.1
2018-03-03T02:07:26.381Z,28
2018-03-03T02:08:15.943Z,28.1
2018-03-03T02:09:05.655Z,28
2018-03-03T02:09:55.758Z,28
2018-03-03T02:10:46.593Z,28
2018-03-03T02:11:36.145Z,28
2018-03-03T02:12:26.423Z,27.9
2018-03-03T02:13:15.398Z,27.9
2018-03-03T02:14:06.464Z,27.9
2018-03-03T02:14:57.287Z,27.9
2018-03-03T02:15:46.185Z,27.9
2018-03-03T02:16:36.979Z,27.9
2018-03-03T02:17:26.570Z,27.9
2018-03-03T02:18:16.068Z,27.9
2018-03-03T02:19:06.978Z,27.9
2018-03-03T02:19:55.962Z,27.9
2018-03-03T02:20:47.322Z,-97
2018-03-03T02:21:37.400Z,27.9
2018-03-03T02:22:26.144Z,-97
2018-03-03T02:23:16.330Z,-97
2018-03-03T02:24:06.474Z,-97
2018-03-03T02:24:56.512Z,-97
2018-03-03T02:25:46.915Z,-97
2018-03-03T02:26:36.979Z,-97
2018-03-03T02:27:27.409Z,27.8
2018-03-03T02:28:18.309Z,27.8
2018-03-03T02:29:07.329Z,27.8
2018-03-03T02:29:57.215Z,27.8
2018-03-03T02:30:47.353Z,27.8
2018-03-03T02:31:37.239Z,27.8
2018-03-03T02:32:27.501Z,27.8
2018-03-03T02:33:17.910Z,27.8
2018-03-03T02:34:08.797Z,27.7
2018-03-03T02:34:58.787Z,27.7
2018-03-03T02:35:49.089Z,27.7
2018-03-03T02:36:38.608Z,27.7
2018-03-03T02:37:28.723Z,27.7
2018-03-03T02:38:18.746Z,27.7
2018-03-03T02:39:09.056Z,27.7
2018-03-03T02:39:58.809Z,27.6
2018-03-03T02:40:48.606Z,27.6
2018-03-03T02:41:39.017Z,27.6
2018-03-03T02:42:29.294Z,27.6
2018-03-03T02:43:19.054Z,27.6
2018-03-03T02:44:09.361Z,27.6
2018-03-03T02:44:59.713Z,27.6
2018-03-03T02:45:49.709Z,27.6
2018-03-03T02:46:38.996Z,27.6
2018-03-03T02:47:29.330Z,27.6
2018-03-03T02:48:19.475Z,27.5
2018-03-03T02:49:09.517Z,27.5
2018-03-03T02:49:59.567Z,27.5
2018-03-03T02:50:48.058Z,27.5
2018-03-03T02:51:39.343Z,27.5
2018-03-03T02:52:29.484Z,27.5
2018-03-03T02:53:18.351Z,27.5
2018-03-03T02:54:09.068Z,27.5
2018-03-03T02:54:58.406Z,27.4
2018-03-03T02:55:49.456Z,27.4
2018-03-03T02:56:39.207Z,27.4
2018-03-03T02:57:28.601Z,27.4
2018-03-03T02:58:18.985Z,27.4
2018-03-03T02:59:08.206Z,27.4
2018-03-03T02:59:58.257Z,27.4
2018-03-03T03:00:49.240Z,27.4
2018-03-03T03:01:39.541Z,27.4
2018-03-03T03:02:28.436Z,27.4
2018-03-03T03:03:19.288Z,27.4
2018-03-03T03:04:09.364Z,27.4
2018-03-03T03:05:00.408Z,27.3
2018-03-03T03:05:49.612Z,27.3
2018-03-03T03:06:39.619Z,27.3
2018-03-03T03:07:30.275Z,27.3
2018-03-03T03:08:20.327Z,27.3
2018-03-03T03:09:09.997Z,27.3
2018-03-03T03:09:59.317Z,27.3
2018-03-03T03:10:49.582Z,27.3
2018-03-03T03:11:39.722Z,27.3
2018-03-03T03:12:30.052Z,27.3
2018-03-03T03:13:19.463Z,27.3
2018-03-03T03:14:09.595Z,27.3
2018-03-03T03:15:00.382Z,27.3
2018-03-03T03:15:50.280Z,27.2
2018-03-03T03:16:39.274Z,27.2
2018-03-03T03:17:30.905Z,27.2
2018-03-03T03:18:20.860Z,27.2
2018-03-03T03:19:10.045Z,27.2
2018-03-03T03:20:01.722Z,27.2
2018-03-03T03:20:50.922Z,27.1
2018-03-03T03:21:40.824Z,27.1
2018-03-03T03:22:31.525Z,27.1
2018-03-03T03:23:21.084Z,27.1
2018-03-03T03:24:10.776Z,27.1
2018-03-03T03:25:01.342Z,27.1
2018-03-03T03:25:50.873Z,27.1
2018-03-03T03:26:41.082Z,27.1
2018-03-03T03:27:29.991Z,27.1
2018-03-03T03:28:21.464Z,27.1
2018-03-03T03:29:11.695Z,27.1
2018-03-03T03:30:01.080Z,27.1
2018-03-03T03:30:51.323Z,27.1
2018-03-03T03:31:41.780Z,27.1
2018-03-03T03:32:30.883Z,27
2018-03-03T03:33:21.101Z,27
2018-03-03T03:34:10.779Z,27
2018-03-03T03:35:01.958Z,27
2018-03-03T03:35:52.174Z,27
2018-03-03T03:36:40.922Z,26.9
2018-03-03T03:37:31.176Z,26.9
2018-03-03T03:38:21.686Z,26.9
2018-03-03T03:39:11.209Z,26.9
2018-03-03T03:40:01.329Z,26.9
2018-03-03T03:40:51.186Z,26.9
2018-03-03T03:41:42.995Z,26.9
2018-03-03T03:42:32.390Z,26.9
2018-03-03T03:43:21.556Z,26.9
2018-03-03T03:44:12.505Z,26.9
2018-03-03T03:45:02.615Z,26.8
2018-03-03T03:45:53.017Z,26.8
2018-03-03T03:46:41.997Z,26.8
2018-03-03T03:47:33.172Z,26.8
2018-03-03T03:48:23.455Z,26.8
2018-03-03T03:49:12.463Z,26.8
2018-03-03T03:50:02.672Z,26.8
2018-03-03T03:50:52.262Z,26.8
2018-03-03T03:51:42.428Z,26.8
2018-03-03T03:52:32.564Z,26.8
2018-03-03T03:53:22.170Z,26.8
2018-03-03T03:54:13.096Z,26.8
2018-03-03T03:55:02.768Z,26.8
2018-03-03T03:55:52.687Z,26.8
2018-03-03T03:56:43.404Z,26.8
2018-03-03T03:57:34.252Z,26.8
2018-03-03T03:58:24.362Z,26.7
2018-03-03T03:59:14.396Z,26.7
2018-03-03T04:00:03.899Z,26.7
2018-03-03T04:00:53.706Z,26.7
2018-03-03T04:01:44.861Z,26.7
2018-03-03T04:02:34.632Z,26.6
2018-03-03T04:03:23.794Z,26.7
2018-03-03T04:04:14.114Z,26.6
2018-03-03T04:05:04.564Z,26.6
2018-03-03T04:05:54.881Z,26.6
2018-03-03T04:06:44.056Z,26.6
2018-03-03T04:07:33.877Z,26.6
2018-03-03T04:08:24.296Z,26.6
2018-03-03T04:09:14.193Z,26.6
2018-03-03T04:10:03.575Z,26.6
2018-03-03T04:10:54.484Z,26.6
2018-03-03T04:11:45.001Z,26.6
2018-03-03T04:12:34.102Z,26.6
2018-03-03T04:13:23.746Z,26.6
2018-03-03T04:14:13.645Z,26.5
2018-03-03T04:15:03.917Z,26.5
2018-03-03T04:15:53.836Z,26.5
2018-03-03T04:16:43.914Z,26.5
2018-03-03T04:17:34.620Z,26.5
2018-03-03T04:18:24.796Z,26.5
2018-03-03T04:19:13.799Z,26.4
2018-03-03T04:20:03.448Z,26.5
2018-03-03T04:20:54.796Z,26.4
2018-03-03T04:21:44.634Z,26.4
2018-03-03T04:22:34.968Z,26.4
2018-03-03T04:23:25.224Z,26.4
2018-03-03T04:24:15.603Z,26.4
2018-03-03T04:25:05.230Z,26.4
2018-03-03T04:25:55.261Z,26.4
2018-03-03T04:26:45.605Z,26.4
2018-03-03T04:27:35.433Z,26.4
2018-03-03T04:28:24.204Z,26.4
2018-03-03T04:29:15.643Z,26.3
2018-03-03T04:30:05.101Z,26.3
2018-03-03T04:30:55.797Z,26.3
2018-03-03T04:31:45.794Z,26.3
2018-03-03T04:32:35.939Z,26.3
2018-03-03T04:33:26.228Z,26.3
2018-03-03T04:34:14.848Z,26.3
2018-03-03T04:35:06.720Z,26.3
2018-03-03T04:35:55.676Z,26.3
2018-03-03T04:36:45.756Z,26.3
2018-03-03T04:37:35.984Z,26.3
2018-03-03T04:38:25.369Z,26.3
2018-03-03T04:39:14.964Z,26.2
2018-03-03T04:40:05.798Z,26.2
2018-03-03T04:40:55.381Z,26.2
2018-03-03T04:41:46.225Z,26.2
2018-03-03T04:42:36.326Z,26.2
2018-03-03T04:43:26.741Z,26.2
2018-03-03T04:44:16.336Z,26.2
2018-03-03T04:45:06.993Z,26.2
2018-03-03T04:45:56.505Z,26.1
2018-03-03T04:46:46.478Z,26.1
2018-03-03T04:47:36.729Z,26.1
2018-03-03T04:48:26.721Z,26.1
2018-03-03T04:49:18.054Z,26.1
2018-03-03T04:50:06.676Z,26.1
2018-03-03T04:50:56.973Z,26.1
2018-03-03T04:51:47.158Z,26.1
2018-03-03T04:52:37.473Z,26.1
2018-03-03T04:53:28.360Z,26.1
2018-03-03T04:54:17.858Z,26.1
2018-03-03T04:55:07.878Z,26
2018-03-03T04:55:58.249Z,26.1
2018-03-03T04:56:47.107Z,26
2018-03-03T04:57:38.108Z,26
2018-03-03T04:58:27.106Z,26
2018-03-03T04:59:17.263Z,26
2018-03-03T05:00:06.724Z,26
2018-03-03T05:00:57.707Z,26
2018-03-03T05:01:47.126Z,25.9
2018-03-03T05:02:37.722Z,25.9
2018-03-03T05:03:27.250Z,25.9
2018-03-03T05:04:17.371Z,25.9
2018-03-03T05:05:07.870Z,25.9
2018-03-03T05:05:57.197Z,25.9
2018-03-03T05:06:48.232Z,25.9
2018-03-03T05:07:37.961Z,25.9
2018-03-03T05:08:27.839Z,25.9
2018-03-03T05:09:17.542Z,25.9
2018-03-03T05:10:08.369Z,25.9
2018-03-03T05:10:58.177Z,25.9
2018-03-03T05:11:47.507Z,25.9
2018-03-03T05:12:38.629Z,25.8
2018-03-03T05:13:28.452Z,25.8
2018-03-03T05:14:18.695Z,25.8
2018-03-03T05:15:07.757Z,25.8
2018-03-03T05:15:58.742Z,25.8
2018-03-03T05:16:47.578Z,25.8
2018-03-03T05:17:39.199Z,25.8
2018-03-03T05:18:27.846Z,25.8
2018-03-03T05:19:18.831Z,25.8
2018-03-03T05:20:09.236Z,25.8
2018-03-03T05:20:58.709Z,25.8
2018-03-03T05:21:48.064Z,25.8
2018-03-03T05:22:39.204Z,25.8
2018-03-03T05:23:29.819Z,25.7
2018-03-03T05:24:18.801Z,25.7
2018-03-03T05:25:09.173Z,25.7
2018-03-03T05:25:58.666Z,25.7
2018-03-03T05:26:49.475Z,25.7
2018-03-03T05:27:39.180Z,25.7
2018-03-03T05:28:30.234Z,25.7
2018-03-03T05:29:18.306Z,25.6
2018-03-03T05:30:10.069Z,25.6
2018-03-03T05:31:00.219Z,25.6
2018-03-03T05:31:50.087Z,25.6
2018-03-03T05:32:39.586Z,25.6
2018-03-03T05:33:30.243Z,25.5
2018-03-03T05:34:19.545Z,25.5
2018-03-03T05:35:09.980Z,25.5
2018-03-03T05:35:59.071Z,25.4
2018-03-03T05:36:49.988Z,25.4
2018-03-03T05:37:40.140Z,25.4
2018-03-03T05:38:30.168Z,25.4
2018-03-03T05:39:19.270Z,25.4
2018-03-03T05:40:10.210Z,25.4
2018-03-03T05:40:59.863Z,25.4
2018-03-03T05:41:51.137Z,25.4
2018-03-03T05:42:40.815Z,25.3
2018-03-03T05:43:29.944Z,25.3
2018-03-03T05:44:19.807Z,25.2
2018-03-03T05:45:10.617Z,25.1
2018-03-03T05:46:00.510Z,25
2018-03-03T05:46:51.428Z,24.9
2018-03-03T05:47:41.227Z,24.8
2018-03-03T05:48:31.252Z,24.7
2018-03-03T05:49:20.648Z,24.6
2018-03-03T05:50:11.084Z,24.6
2018-03-03T05:51:00.643Z,24.5
2018-03-03T05:51:50.718Z,24.4
2018-03-03T05:52:40.827Z,24.4
2018-03-03T05:53:30.537Z,24.3
2018-03-03T05:54:21.152Z,24.2
2018-03-03T05:55:11.676Z,24.1
2018-03-03T05:56:00.719Z,24
2018-03-03T05:56:50.737Z,23.9
2018-03-03T05:57:41.533Z,23.8
2018-03-03T05:58:31.039Z,23.8
2018-03-03T05:59:21.566Z,23.7
2018-03-03T06:00:11.819Z,23.6
2018-03-03T06:01:01.235Z,23.5
2018-03-03T06:01:52.021Z,23.4
2018-03-03T06:02:42.762Z,23.3
2018-03-03T06:03:32.302Z,23.3
2018-03-03T06:04:22.664Z,23.2
2018-03-03T06:05:12.671Z,23.1
2018-03-03T06:06:02.972Z,23
2018-03-03T06:06:53.046Z,22.9
2018-03-03T06:07:43.087Z,22.9
2018-03-03T06:08:32.586Z,22.8
2018-03-03T06:09:23.176Z,22.8
2018-03-03T06:10:13.249Z,22.6
2018-03-03T06:11:03.054Z,22.6
2018-03-03T06:11:53.138Z,22.6
2018-03-03T06:12:43.418Z,22.4
2018-03-03T06:14:13.234Z,22.4
2018-03-03T06:14:26.762Z,22.3
2018-03-03T06:15:17.401Z,22.3
2018-03-03T06:16:07.997Z,22.3
2018-03-03T06:16:57.780Z,22.3
2018-03-03T06:17:48.099Z,22.1
2018-03-03T06:18:37.307Z,22.1
2018-03-03T06:19:28.230Z,22.1
2018-03-03T06:20:18.031Z,22.1
2018-03-03T06:21:08.432Z,22
2018-03-03T06:21:57.589Z,21.9
2018-03-03T06:22:47.886Z,21.9
2018-03-03T06:23:38.201Z,21.9
2018-03-03T06:24:27.149Z,21.8
2018-03-03T06:25:18.150Z,21.8
2018-03-03T06:26:08.400Z,21.8
2018-03-03T06:26:58.176Z,21.7
2018-03-03T06:27:48.533Z,21.6
2018-03-03T06:28:38.629Z,21.6
2018-03-03T06:29:28.360Z,21.6
2018-03-03T06:30:18.395Z,21.5
2018-03-03T06:31:08.511Z,21.5
2018-03-03T06:31:58.791Z,21.4
2018-03-03T06:32:48.936Z,21.4
2018-03-03T06:33:38.941Z,21.4
2018-03-03T06:34:28.718Z,21.3
2018-03-03T06:35:19.016Z,21.3
2018-03-03T06:36:09.360Z,21.3
2018-03-03T06:36:58.833Z,21.2
2018-03-03T06:37:48.339Z,21.2
2018-03-03T06:38:39.218Z,21.2
2018-03-03T06:39:29.036Z,-97
2018-03-03T06:40:19.071Z,-97
2018-03-03T06:41:09.400Z,-97
2018-03-03T06:41:59.473Z,21.1
2018-03-03T06:42:49.785Z,21.1
2018-03-03T06:43:39.605Z,21
2018-03-03T06:44:29.908Z,21
2018-03-03T06:45:19.953Z,21
2018-03-03T06:46:09.905Z,20.9
2018-03-03T06:46:59.543Z,20.9
2018-03-03T06:47:49.677Z,20.9
2018-03-03T06:48:40.221Z,20.9
2018-03-03T06:49:29.743Z,20.9
2018-03-03T06:50:20.058Z,20.8
2018-03-03T06:51:09.807Z,20.8
2018-03-03T06:52:00.192Z,20.8
2018-03-03T06:52:49.888Z,20.8
2018-03-03T06:53:40.213Z,20.8
2018-03-03T06:54:30.317Z,20.8
2018-03-03T06:55:20.622Z,20.8
2018-03-03T06:56:10.691Z,20.8
2018-03-03T06:57:00.771Z,20.7
2018-03-03T06:57:50.517Z,20.7
2018-03-03T06:58:40.873Z,20.6
2018-03-03T06:59:30.395Z,20.6
2018-03-03T07:00:20.656Z,20.6
2018-03-03T07:01:09.561Z,20.6
2018-03-03T07:01:59.844Z,20.6
2018-03-03T07:02:49.052Z,20.6
2018-03-03T07:03:39.654Z,20.6
2018-03-03T07:04:30.201Z,20.6
2018-03-03T07:05:19.936Z,20.5
2018-03-03T07:06:08.844Z,20.5
2018-03-03T07:06:59.624Z,20.5
2018-03-03T07:07:50.371Z,20.4
2018-03-03T07:08:40.294Z,20.4
2018-03-03T07:09:29.766Z,20.4
2018-03-03T07:10:20.884Z,20.4
2018-03-03T07:11:09.906Z,20.4
2018-03-03T07:12:00.819Z,20.4
2018-03-03T07:12:51.308Z,20.4
2018-03-03T07:13:40.561Z,20.4
2018-03-03T07:14:31.408Z,20.4
2018-03-03T07:15:20.897Z,20.4
2018-03-03T07:16:11.125Z,20.4
2018-03-03T07:17:00.316Z,20.4
2018-03-03T07:17:50.861Z,20.4
2018-03-03T07:18:40.681Z,20.4
2018-03-03T07:19:31.173Z,20.4
2018-03-03T07:20:20.701Z,20.4
2018-03-03T07:21:11.371Z,20.4
2018-03-03T07:22:00.464Z,20.3
2018-03-03T07:22:50.398Z,20.3
2018-03-03T07:23:41.191Z,20.3
2018-03-03T07:24:30.820Z,20.3
2018-03-03T07:25:21.256Z,20.3
2018-03-03T07:26:11.033Z,20.3
2018-03-03T07:27:01.496Z,20.3
2018-03-03T07:27:51.971Z,20.2
2018-03-03T07:28:41.011Z,20.2
2018-03-03T07:29:30.493Z,20.2
2018-03-03T07:30:22.295Z,20.2
2018-03-03T07:31:12.091Z,20.1
2018-03-03T07:32:01.103Z,20.1
2018-03-03T07:32:51.592Z,18.6
2018-03-03T07:33:42.109Z,13.7
2018-03-03T07:34:31.425Z,22.4
2018-03-03T07:35:21.837Z,28.2
2018-03-03T07:36:11.210Z,29.7
2018-03-03T07:37:02.034Z,27.1
2018-03-03T07:37:51.314Z,23
2018-03-03T07:38:41.978Z,20.4
2018-03-03T07:39:31.775Z,19.3
2018-03-03T07:40:22.726Z,19.5
2018-03-03T07:41:11.564Z,20.4
2018-03-03T07:42:02.316Z,21.4
2018-03-03T07:42:52.889Z,22.6
2018-03-03T07:43:42.102Z,24.1
2018-03-03T07:44:32.560Z,25.3
2018-03-03T07:45:22.302Z,25.8
2018-03-03T07:46:12.350Z,25.4
2018-03-03T07:47:01.373Z,24.5
2018-03-03T07:47:52.219Z,23.7
2018-03-03T07:48:41.944Z,23.1
2018-03-03T07:49:33.745Z,22.9
2018-03-03T07:50:23.327Z,23
2018-03-03T07:51:12.787Z,23.1
2018-03-03T07:52:02.895Z,23.2
2018-03-03T07:52:52.723Z,23
2018-03-03T07:53:42.964Z,22.7
2018-03-03T07:54:33.482Z,22.3
2018-03-03T07:55:23.883Z,22
2018-03-03T07:56:13.655Z,21.8
2018-03-03T07:57:03.800Z,21.6
2018-03-03T07:57:53.463Z,21.5
2018-03-03T07:58:43.802Z,21.5
2018-03-03T07:59:33.344Z,21.6
2018-03-03T08:00:23.154Z,21.8
2018-03-03T08:01:14.568Z,22.2
2018-03-03T08:02:04.125Z,23.3
2018-03-03T08:02:53.689Z,24.8
2018-03-03T08:03:43.973Z,26.3
2018-03-03T08:04:33.630Z,27.4
2018-03-03T08:05:25.391Z,28.2
2018-03-03T08:06:14.011Z,28.8
2018-03-03T08:07:03.836Z,28.9
2018-03-03T08:07:54.137Z,29.3
2018-03-03T08:08:45.154Z,29.4
2018-03-03T08:09:34.133Z,29.2
2018-03-03T08:10:24.836Z,29.1
2018-03-03T08:11:14.235Z,29.3
2018-03-03T08:12:04.983Z,29.1
2018-03-03T08:12:55.852Z,28.9
2018-03-03T08:13:44.799Z,29.3
2018-03-03T08:14:35.427Z,29.5
2018-03-03T08:15:24.127Z,29.2
2018-03-03T08:16:15.061Z,28.6
2018-03-03T08:17:04.737Z,28.2
2018-03-03T08:17:54.830Z,28.4
2018-03-03T08:18:44.292Z,28.8
2018-03-03T08:19:35.192Z,28.7
2018-03-03T08:20:25.308Z,28.4
2018-03-03T08:21:14.980Z,27.9
2018-03-03T08:22:05.263Z,-97
2018-03-03T08:22:54.727Z,27.9
2018-03-03T08:23:45.581Z,28.4
2018-03-03T08:24:35.067Z,28.6
2018-03-03T08:25:25.943Z,28.5
2018-03-03T08:26:15.937Z,28.2
2018-03-03T08:27:04.137Z,28
2018-03-03T08:27:55.947Z,28
2018-03-03T08:28:45.724Z,28.6
2018-03-03T08:29:35.933Z,29.6
2018-03-03T08:30:25.803Z,30.1
2018-03-03T08:31:16.341Z,29.9
2018-03-03T08:32:06.072Z,29.4
2018-03-03T08:32:55.844Z,28.9
2018-03-03T08:33:45.855Z,28.6
2018-03-03T08:34:36.781Z,28.7
2018-03-03T08:35:25.370Z,28.9
2018-03-03T08:36:16.401Z,29.3
2018-03-03T08:37:06.579Z,29.6
2018-03-03T08:37:56.633Z,29.6
2018-03-03T08:38:46.504Z,29.4
2018-03-03T08:39:36.431Z,29.1
2018-03-03T08:40:26.655Z,29
2018-03-03T08:41:17.783Z,29.6
2018-03-03T08:42:07.236Z,30.9
2018-03-03T08:42:57.917Z,32.1
2018-03-03T08:43:47.917Z,32.8
2018-03-03T08:44:37.392Z,33.3
2018-03-03T08:45:27.797Z,33.4
2018-03-03T08:46:17.508Z,33.3
2018-03-03T08:47:07.840Z,32.8
2018-03-03T08:47:57.940Z,33
2018-03-03T08:48:47.996Z,34
2018-03-03T08:49:36.939Z,35.4
2018-03-03T08:50:26.295Z,36.7
2018-03-03T08:51:16.647Z,37.8
2018-03-03T08:52:06.733Z,38.6
2018-03-03T08:52:57.248Z,38.6
2018-03-03T08:53:47.011Z,37.4
2018-03-03T08:54:37.061Z,36
2018-03-03T08:55:27.703Z,35.6
2018-03-03T08:56:17.288Z,36.4
2018-03-03T08:57:06.953Z,37.9
2018-03-03T08:57:57.082Z,39.4
2018-03-03T08:58:48.056Z,40.3
2018-03-03T08:59:37.419Z,40
2018-03-03T09:00:28.527Z,39.2
2018-03-03T09:01:17.961Z,38.6
2018-03-03T09:02:07.403Z,38.3
2018-03-03T09:02:58.023Z,38.7
2018-03-03T09:03:47.489Z,39.6
2018-03-03T09:04:37.731Z,40.5
2018-03-03T09:05:28.088Z,41.2
2018-03-03T09:06:19.396Z,41.6
2018-03-03T09:07:08.203Z,41.8
2018-03-03T09:07:58.095Z,41.8
2018-03-03T09:08:47.437Z,41.8
2018-03-03T09:09:38.175Z,41.9
2018-03-03T09:10:28.397Z,42
2018-03-03T09:11:18.401Z,42.1
2018-03-03T09:12:07.847Z,42
2018-03-03T09:12:59.106Z,41.1
2018-03-03T09:13:47.798Z,39.6
2018-03-03T09:14:38.284Z,38.4
2018-03-03T09:15:29.549Z,38.1
2018-03-03T09:16:19.106Z,38.7
2018-03-03T09:17:08.177Z,39.6
2018-03-03T09:17:58.481Z,39.6
2018-03-03T09:18:48.781Z,39.2
2018-03-03T09:19:39.000Z,39.1
2018-03-03T09:20:29.336Z,39.5
2018-03-03T09:21:18.891Z,39.9
2018-03-03T09:22:08.958Z,40.1
2018-03-03T09:23:00.130Z,40.7
2018-03-03T09:23:49.727Z,41.4
2018-03-03T09:24:40.516Z,42.1
2018-03-03T09:25:28.694Z,42.5
2018-03-03T09:26:18.397Z,42.1
2018-03-03T09:27:09.533Z,41.4
2018-03-03T09:27:59.299Z,41.2
2018-03-03T09:28:49.218Z,41.4
2018-03-03T09:29:39.833Z,42.5
2018-03-03T09:30:30.688Z,44
2018-03-03T09:31:19.339Z,44.8
2018-03-03T09:32:10.226Z,44.6
2018-03-03T09:32:58.752Z,44.2
2018-03-03T09:33:49.788Z,44.4
2018-03-03T09:34:40.408Z,45
2018-03-03T09:35:30.101Z,45.6
2018-03-03T09:36:20.298Z,46.2
2018-03-03T09:37:10.040Z,46.9
2018-03-03T09:38:00.748Z,47.4
2018-03-03T09:38:49.638Z,47.7
2018-03-03T09:39:40.315Z,47.8
2018-03-03T09:40:31.262Z,47.9
2018-03-03T09:41:21.032Z,47.4
2018-03-03T09:42:10.584Z,46.2
2018-03-03T09:43:00.433Z,45.2
2018-03-03T09:43:50.923Z,45.1
2018-03-03T09:44:40.574Z,45.6
2018-03-03T09:45:30.740Z,46.6
2018-03-03T09:46:21.048Z,47.3
2018-03-03T09:47:10.552Z,47.8
2018-03-03T09:48:00.480Z,47.8
2018-03-03T09:48:50.655Z,47.9
2018-03-03T09:49:40.476Z,47.8
2018-03-03T09:50:30.260Z,47.9
2018-03-03T09:51:21.982Z,48
2018-03-03T09:52:10.915Z,48.2
2018-03-03T09:53:00.956Z,48.4
2018-03-03T09:53:51.610Z,48.6
2018-03-03T09:54:41.297Z,48.8
2018-03-03T09:55:31.918Z,48.9
2018-03-03T09:56:21.226Z,49
2018-03-03T09:57:11.657Z,49.1
2018-03-03T09:58:02.320Z,49.2
2018-03-03T09:58:52.494Z,49.3
2018-03-03T09:59:42.479Z,49.5
2018-03-03T10:00:31.552Z,49.8
2018-03-03T10:01:22.424Z,49.8
2018-03-03T10:02:12.339Z,49.3
2018-03-03T10:03:01.860Z,48.9
2018-03-03T10:03:51.697Z,49.1
2018-03-03T10:04:42.107Z,49.6
2018-03-03T10:05:31.976Z,50
2018-03-03T10:06:22.539Z,49.4
2018-03-03T10:07:11.914Z,47.9
2018-03-03T10:08:02.961Z,46.2
2018-03-03T10:08:51.483Z,44.8
2018-03-03T10:09:42.884Z,43.9
2018-03-03T10:10:32.849Z,44.1
2018-03-03T10:11:22.888Z,45.3
2018-03-03T10:12:12.739Z,46
2018-03-03T10:13:03.169Z,45.7
2018-03-03T10:13:52.384Z,45.1
2018-03-03T10:14:42.636Z,45.2
2018-03-03T10:15:33.252Z,46.4
2018-03-03T10:16:22.634Z,48.1
2018-03-03T10:17:13.081Z,48.9
2018-03-03T10:18:02.069Z,48.9
2018-03-03T10:18:52.721Z,48.2
2018-03-03T10:19:43.466Z,46.9
2018-03-03T10:20:33.056Z,45.9
2018-03-03T10:21:23.398Z,45.6
2018-03-03T10:22:13.054Z,46.1
2018-03-03T10:23:03.227Z,46.6
2018-03-03T10:23:52.849Z,46.9
2018-03-03T10:24:43.986Z,46.9
2018-03-03T10:25:33.406Z,46.8
2018-03-03T10:26:25.337Z,46.7
2018-03-03T10:27:14.141Z,46.9
2018-03-03T10:28:03.817Z,47.1
2018-03-03T10:28:53.216Z,47
2018-03-03T10:29:43.626Z,46.6
2018-03-03T10:30:34.826Z,45.9
2018-03-03T10:31:24.096Z,45.4
2018-03-03T10:32:13.852Z,45.6
2018-03-03T10:33:05.428Z,46.6
2018-03-03T10:33:53.970Z,48.4
2018-03-03T10:34:43.620Z,50.1
2018-03-03T10:35:34.588Z,51.3
2018-03-03T10:36:24.602Z,51
2018-03-03T10:37:14.990Z,49.8
2018-03-03T10:38:04.277Z,48
2018-03-03T10:38:54.200Z,46.7
2018-03-03T10:39:44.304Z,46.7
2018-03-03T10:40:33.948Z,48.1
2018-03-03T10:41:24.120Z,49.6
2018-03-03T10:42:14.139Z,50.6
2018-03-03T10:43:05.380Z,51.3
2018-03-03T10:43:54.855Z,51.7
2018-03-03T10:44:44.919Z,52.1
2018-03-03T10:45:34.793Z,52.3
2018-03-03T10:46:25.148Z,52.6
2018-03-03T10:47:15.481Z,52.9
2018-03-03T10:48:04.997Z,53.2
2018-03-03T10:48:54.933Z,53.3
2018-03-03T10:49:46.568Z,53.5
2018-03-03T10:50:35.206Z,53.7
2018-03-03T10:51:25.096Z,53.8
2018-03-03T10:52:14.742Z,54
2018-03-03T10:53:06.399Z,54.1
2018-03-03T10:53:56.492Z,54.2
2018-03-03T10:54:45.677Z,54.2
2018-03-03T10:55:36.511Z,54.2
2018-03-03T10:56:26.571Z,54.3
2018-03-03T10:57:15.497Z,54.3
2018-03-03T10:58:05.626Z,54.3
2018-03-03T10:58:55.307Z,54.4
2018-03-03T10:59:46.234Z,54.4
2018-03-03T11:00:34.986Z,54.6
2018-03-03T11:01:26.226Z,54.9
2018-03-03T11:02:14.351Z,55.2
2018-03-03T11:03:06.661Z,55.4
2018-03-03T11:03:56.912Z,55.6
2018-03-03T11:04:45.832Z,55.7
2018-03-03T11:05:35.716Z,55.6
2018-03-03T11:06:27.124Z,55.6
2018-03-03T11:07:16.593Z,55.6
2018-03-03T11:08:07.584Z,55.6
2018-03-03T11:08:55.752Z,55.6
2018-03-03T11:09:47.506Z,55.8